createdAt,value
2017-12-27T00:00:31.918Z,1.42
2017-12-27T00:03:05.191Z,1.40
2017-12-27T00:05:39.341Z,1.60
2017-12-27T00:08:12.566Z,1.70
2017-12-27T00:10:46.764Z,1.60
2017-12-27T00:13:19.978Z,1.80
2017-12-27T00:15:53.311Z,1.40
2017-12-27T00:18:27.331Z,1.30
2017-12-27T00:21:00.518Z,1.50
2017-12-27T00:23:33.649Z,1.50
2017-12-27T00:26:06.906Z,2.10
2017-12-27T00:28:40.153Z,1.40
2017-12-27T00:31:09.541Z,1.33
2017-12-27T00:33:37.019Z,2.12
2017-12-27T00:36:04.515Z,1.40
2017-12-27T00:38:32.092Z,1.75
2017-12-27T00:40:59.698Z,1.45
2017-12-27T00:43:27.219Z,1.55
2017-12-27T00:45:55.570Z,1.30
2017-12-27T00:48:24.737Z,1.35
2017-12-27T00:50:52.243Z,1.80
2017-12-27T00:53:19.714Z,1.40
2017-12-27T00:55:48.002Z,1.33
2017-12-27T00:58:15.499Z,1.40
2017-12-27T01:00:42.988Z,2.22
2017-12-27T01:03:10.486Z,1.33
2017-12-27T01:05:38.278Z,1.55
2017-12-27T01:08:05.809Z,1.87
2017-12-27T01:10:33.343Z,1.55
2017-12-27T01:13:00.842Z,1.80
2017-12-27T01:15:28.315Z,1.27
2017-12-27T01:17:55.781Z,1.50
2017-12-27T01:20:24.057Z,1.35
2017-12-27T01:22:53.270Z,1.40
2017-12-27T01:25:21.322Z,1.20
2017-12-27T01:27:48.816Z,1.50
2017-12-27T01:30:16.294Z,1.60
2017-12-27T01:32:43.777Z,1.55
2017-12-27T01:35:11.273Z,1.25
2017-12-27T01:37:39.513Z,1.10
2017-12-27T01:40:07.029Z,1.40
2017-12-27T01:42:34.571Z,1.25
2017-12-27T01:45:02.866Z,1.30
2017-12-27T01:47:30.348Z,1.30
2017-12-27T01:49:57.850Z,2.12
2017-12-27T01:52:25.321Z,1.60
2017-12-27T01:54:52.806Z,1.20
2017-12-27T01:57:20.397Z,0.90
2017-12-27T01:59:47.922Z,1.10
2017-12-27T02:02:15.393Z,1.35
2017-12-27T02:04:42.894Z,1.30
2017-12-27T02:07:10.370Z,1.40
2017-12-27T02:09:38.609Z,1.37
2017-12-27T02:12:06.749Z,1.10
2017-12-27T02:14:35.220Z,1.10
2017-12-27T02:17:02.690Z,1.10
2017-12-27T02:19:30.246Z,1.20
2017-12-27T02:21:57.787Z,1.08
2017-12-27T02:24:25.635Z,1.42
2017-12-27T02:26:53.889Z,1.00
2017-12-27T02:29:21.366Z,1.10
2017-12-27T02:31:49.614Z,1.10
2017-12-27T02:34:17.246Z,1.98
2017-12-27T02:36:44.753Z,1.17
2017-12-27T02:39:13.009Z,1.00
2017-12-27T02:41:40.489Z,1.10
2017-12-27T02:44:07.962Z,1.10
2017-12-27T02:46:36.206Z,1.10
2017-12-27T02:49:05.266Z,0.90
2017-12-27T02:51:33.434Z,1.20
2017-12-27T02:54:00.916Z,1.02
2017-12-27T02:56:28.402Z,1.10
2017-12-27T02:58:55.887Z,1.17
2017-12-27T03:01:24.133Z,1.25
2017-12-27T03:03:51.626Z,1.20
2017-12-27T03:06:19.199Z,1.00
2017-12-27T03:08:47.235Z,1.00
2017-12-27T03:11:14.773Z,1.05
2017-12-27T03:13:42.249Z,1.00
2017-12-27T03:16:09.721Z,1.20
2017-12-27T03:18:37.983Z,0.80
2017-12-27T03:21:05.453Z,1.00
2017-12-27T03:23:33.702Z,1.10
2017-12-27T03:26:01.218Z,1.10
2017-12-27T03:28:28.692Z,1.10
2017-12-27T03:30:56.172Z,1.10
2017-12-27T03:33:23.661Z,0.90
2017-12-27T03:35:51.134Z,1.20
2017-12-27T03:38:19.725Z,1.17
2017-12-27T03:40:48.487Z,1.10
2017-12-27T03:43:16.825Z,1.08
2017-12-27T03:45:44.361Z,0.85
2017-12-27T03:48:11.943Z,1.05
2017-12-27T03:50:39.428Z,0.93
2017-12-27T03:53:08.274Z,1.20
2017-12-27T03:55:35.769Z,1.02
2017-12-27T03:58:03.253Z,1.08
2017-12-27T04:00:31.506Z,1.20
2017-12-27T04:02:59.878Z,1.40
2017-12-27T04:05:27.938Z,1.00
2017-12-27T04:07:55.979Z,1.00
2017-12-27T04:10:23.485Z,0.80
2017-12-27T04:12:51.053Z,0.98
2017-12-27T04:15:18.530Z,0.90
2017-12-27T04:17:46.022Z,0.90
2017-12-27T04:20:13.493Z,1.40
2017-12-27T04:22:41.589Z,0.77
2017-12-27T04:25:10.086Z,0.88
2017-12-27T04:27:37.840Z,1.10
2017-12-27T04:30:05.312Z,1.10
2017-12-27T04:32:32.799Z,0.90
2017-12-27T04:35:00.273Z,0.70
2017-12-27T04:37:27.758Z,0.90
2017-12-27T04:39:55.246Z,0.80
2017-12-27T04:42:22.717Z,0.80
2017-12-27T04:44:52.639Z,0.73
2017-12-27T04:47:20.289Z,0.85
2017-12-27T04:49:48.534Z,0.90
2017-12-27T04:52:16.015Z,0.80
2017-12-27T04:54:43.983Z,1.00
2017-12-27T04:57:11.905Z,0.80
2017-12-27T04:59:39.405Z,0.70
2017-12-27T05:02:06.914Z,0.80
2017-12-27T05:04:35.250Z,1.00
2017-12-27T05:07:05.190Z,0.80
2017-12-27T05:09:34.666Z,0.98
2017-12-27T05:12:03.601Z,1.00
2017-12-27T05:14:31.086Z,0.90
2017-12-27T05:17:00.564Z,0.90
2017-12-27T05:19:29.441Z,0.90
2017-12-27T05:21:56.922Z,1.00
2017-12-27T05:24:24.422Z,0.90
2017-12-27T05:26:51.894Z,0.90
2017-12-27T05:29:20.143Z,0.90
2017-12-27T05:31:47.686Z,0.70
2017-12-27T05:34:16.043Z,0.93
2017-12-27T05:36:44.326Z,0.70
2017-12-27T05:39:11.826Z,0.90
2017-12-27T05:41:39.546Z,0.80
2017-12-27T05:44:07.856Z,1.10
2017-12-27T05:46:37.620Z,0.65
2017-12-27T05:49:05.100Z,1.00
2017-12-27T05:51:33.409Z,0.90
2017-12-27T05:54:00.909Z,0.90
2017-12-27T05:56:30.423Z,0.80
2017-12-27T05:58:57.898Z,0.90
2017-12-27T06:01:25.950Z,0.90
2017-12-27T06:03:53.426Z,0.90
2017-12-27T06:06:22.961Z,0.80
2017-12-27T06:08:51.025Z,0.90
2017-12-27T06:11:19.343Z,0.90
2017-12-27T06:13:47.582Z,1.00
2017-12-27T06:16:15.069Z,0.85
2017-12-27T06:18:43.322Z,0.90
2017-12-27T06:21:10.798Z,1.00
2017-12-27T06:23:41.763Z,1.20
2017-12-27T06:26:13.129Z,0.90
2017-12-27T06:28:40.629Z,0.80
2017-12-27T06:31:08.102Z,0.90
2017-12-27T06:33:35.586Z,0.80
2017-12-27T06:36:03.871Z,0.70
2017-12-27T06:38:31.348Z,0.95
2017-12-27T06:40:58.829Z,1.00
2017-12-27T06:43:27.234Z,0.90
2017-12-27T06:45:54.712Z,0.95
2017-12-27T06:48:22.953Z,1.10
2017-12-27T06:50:51.055Z,1.00
2017-12-27T06:53:22.907Z,1.48
2017-12-27T06:55:50.413Z,1.00
2017-12-27T06:58:19.198Z,0.98
2017-12-27T07:00:46.665Z,0.98
2017-12-27T07:03:14.162Z,1.02
2017-12-27T07:05:41.644Z,1.20
2017-12-27T07:08:11.693Z,1.40
2017-12-27T07:10:41.559Z,1.37
2017-12-27T07:13:11.817Z,1.35
2017-12-27T07:15:40.519Z,1.65
2017-12-27T07:18:10.340Z,1.37
2017-12-27T07:20:39.309Z,1.77
2017-12-27T07:23:07.173Z,1.20
2017-12-27T07:25:35.560Z,1.50
2017-12-27T07:28:04.964Z,1.60
2017-12-27T07:30:33.424Z,1.80
2017-12-27T07:33:02.291Z,1.75
2017-12-27T07:35:35.311Z,1.58
2017-12-27T07:38:03.094Z,1.70
2017-12-27T07:40:30.569Z,1.50
2017-12-27T07:42:58.295Z,1.42
2017-12-27T07:45:25.804Z,1.62
2017-12-27T07:48:02.038Z,1.77
2017-12-27T07:50:30.262Z,1.80
2017-12-27T07:52:57.765Z,1.30
2017-12-27T07:55:26.632Z,1.50
2017-12-27T07:57:54.924Z,1.25
2017-12-27T08:00:23.422Z,1.70
2017-12-27T08:02:50.898Z,1.45
2017-12-27T08:05:18.405Z,1.40
2017-12-27T08:07:47.981Z,1.35
2017-12-27T08:10:16.623Z,1.30
2017-12-27T08:12:46.130Z,1.52
2017-12-27T08:15:17.375Z,1.15
2017-12-27T08:17:46.396Z,1.30
2017-12-27T08:20:17.140Z,1.40
2017-12-27T08:22:44.630Z,1.50
2017-12-27T08:25:15.196Z,1.40
2017-12-27T08:27:43.797Z,1.27
2017-12-27T08:30:11.270Z,1.40
2017-12-27T08:32:39.097Z,1.40
2017-12-27T08:35:07.488Z,1.42
2017-12-27T08:37:34.969Z,1.48
2017-12-27T08:40:03.911Z,1.50
2017-12-27T08:42:32.721Z,1.77
2017-12-27T08:45:01.149Z,1.30
2017-12-27T08:47:28.645Z,1.40
2017-12-27T08:49:56.116Z,1.75
2017-12-27T08:52:23.592Z,1.80
2017-12-27T08:54:51.349Z,1.52
2017-12-27T08:57:19.615Z,1.77
2017-12-27T08:59:47.098Z,1.27
2017-12-27T09:02:15.192Z,1.60
2017-12-27T09:04:42.670Z,1.80
2017-12-27T09:07:10.917Z,2.20
2017-12-27T09:09:38.418Z,2.25
2017-12-27T09:12:05.937Z,2.15
2017-12-27T09:14:33.961Z,2.75
2017-12-27T09:17:01.457Z,1.80
2017-12-27T09:19:28.927Z,2.40
2017-12-27T09:21:57.160Z,1.80
2017-12-27T09:24:24.666Z,1.83
2017-12-27T09:26:52.141Z,1.80
2017-12-27T09:29:20.386Z,1.90
2017-12-27T09:31:47.889Z,1.35
2017-12-27T09:34:16.742Z,1.55
2017-12-27T09:36:45.110Z,2.50
2017-12-27T09:39:12.622Z,1.42
2017-12-27T09:41:40.666Z,1.60
2017-12-27T09:44:08.142Z,2.00
2017-12-27T09:46:35.654Z,1.65
2017-12-27T09:49:03.141Z,1.55
2017-12-27T09:51:31.384Z,1.75
2017-12-27T09:53:58.882Z,1.65
2017-12-27T09:56:27.134Z,1.42
2017-12-27T09:58:55.434Z,1.67
2017-12-27T10:01:22.962Z,1.50
2017-12-27T10:03:50.519Z,1.50
2017-12-27T10:06:18.009Z,1.65
2017-12-27T10:08:46.289Z,1.40
2017-12-27T10:11:14.819Z,1.90
2017-12-27T10:13:42.309Z,1.73
2017-12-27T10:16:10.754Z,2.35
2017-12-27T10:18:40.177Z,1.73
2017-12-27T10:21:07.665Z,1.40
2017-12-27T10:23:35.929Z,1.70
2017-12-27T10:26:03.638Z,1.90
2017-12-27T10:28:31.121Z,1.90
2017-12-27T10:30:58.632Z,2.90
2017-12-27T10:33:27.239Z,2.70
2017-12-27T10:35:54.717Z,2.00
2017-12-27T10:38:22.226Z,2.55
2017-12-27T10:40:50.554Z,2.30
2017-12-27T10:43:19.942Z,2.30
2017-12-27T10:45:47.436Z,2.20
2017-12-27T10:48:15.251Z,2.35
2017-12-27T10:50:43.490Z,2.30
2017-12-27T10:53:10.993Z,2.72
2017-12-27T10:55:39.020Z,2.37
2017-12-27T10:58:06.848Z,2.55
2017-12-27T11:00:34.386Z,2.25
2017-12-27T11:03:02.786Z,1.92
2017-12-27T11:05:30.604Z,2.55
2017-12-27T11:07:58.522Z,1.80
2017-12-27T11:10:27.862Z,1.95
2017-12-27T11:12:55.341Z,2.62
2017-12-27T11:15:23.606Z,2.08
2017-12-27T11:17:51.798Z,2.03
2017-12-27T11:20:20.042Z,2.30
2017-12-27T11:22:48.299Z,2.10
2017-12-27T11:25:15.784Z,2.15
2017-12-27T11:27:43.417Z,2.00
2017-12-27T11:30:10.898Z,2.10
2017-12-27T11:32:38.374Z,2.10
2017-12-27T11:35:07.640Z,2.00
2017-12-27T11:37:36.508Z,1.95
2017-12-27T11:40:04.003Z,1.95
2017-12-27T11:42:31.479Z,2.00
2017-12-27T11:44:59.294Z,2.05
2017-12-27T11:47:27.850Z,2.12
2017-12-27T11:49:56.678Z,1.92
2017-12-27T11:52:25.375Z,1.80
2017-12-27T11:54:54.413Z,2.47
2017-12-27T11:57:23.456Z,2.50
2017-12-27T11:59:52.498Z,1.80
2017-12-27T12:02:21.744Z,2.53
2017-12-27T12:04:49.607Z,2.55
2017-12-27T12:07:19.374Z,2.30
2017-12-27T12:09:48.390Z,1.90
2017-12-27T12:12:16.141Z,2.12
2017-12-27T12:14:45.659Z,2.05
2017-12-27T12:17:13.370Z,2.55
2017-12-27T12:19:41.073Z,2.10
2017-12-27T12:22:09.573Z,2.45
2017-12-27T12:24:37.674Z,2.00
2017-12-27T12:27:06.062Z,1.60
2017-12-27T12:29:34.166Z,2.20
2017-12-27T12:32:02.555Z,2.60
2017-12-27T12:34:32.097Z,2.20
2017-12-27T12:37:01.042Z,2.37
2017-12-27T12:39:29.466Z,2.05
2017-12-27T12:41:58.460Z,2.25
2017-12-27T12:44:25.981Z,2.72
2017-12-27T12:46:54.217Z,2.17
2017-12-27T12:49:21.693Z,1.80
2017-12-27T12:51:49.197Z,2.47
2017-12-27T12:54:17.550Z,2.62
2017-12-27T12:56:45.681Z,2.40
2017-12-27T12:59:13.185Z,2.17
2017-12-27T13:01:41.946Z,2.20
2017-12-27T13:04:10.231Z,2.17
2017-12-27T13:06:37.892Z,2.40
2017-12-27T13:09:07.087Z,2.37
2017-12-27T13:11:35.858Z,2.10
2017-12-27T13:14:04.154Z,2.10
2017-12-27T13:16:35.162Z,2.40
2017-12-27T13:19:02.983Z,3.30
2017-12-27T13:21:31.242Z,2.70
2017-12-27T13:23:58.717Z,2.83
2017-12-27T13:26:26.771Z,2.35
2017-12-27T13:28:57.202Z,2.78
2017-12-27T13:31:24.674Z,2.33
2017-12-27T13:33:53.133Z,3.03
2017-12-27T13:36:20.617Z,3.40
2017-12-27T13:38:50.042Z,2.22
2017-12-27T13:41:18.490Z,2.95
2017-12-27T13:43:46.029Z,2.65
2017-12-27T13:46:14.965Z,3.45
2017-12-27T13:48:43.622Z,2.70
2017-12-27T13:51:11.341Z,2.05
2017-12-27T13:53:39.674Z,2.85
2017-12-27T13:56:13.166Z,3.08
2017-12-27T13:58:41.191Z,2.40
2017-12-27T14:01:08.665Z,3.10
2017-12-27T14:03:36.161Z,2.50
2017-12-27T14:06:04.398Z,2.00
2017-12-27T14:08:32.814Z,2.70
2017-12-27T14:11:00.461Z,2.80
2017-12-27T14:13:28.998Z,2.12
2017-12-27T14:15:56.474Z,2.45
2017-12-27T14:18:23.974Z,2.83
2017-12-27T14:20:52.079Z,3.03
2017-12-27T14:23:22.469Z,1.80
2017-12-27T14:25:49.982Z,2.35
2017-12-27T14:28:18.003Z,1.85
2017-12-27T14:30:46.258Z,2.47
2017-12-27T14:33:15.242Z,2.37
2017-12-27T14:35:43.503Z,2.35
2017-12-27T14:38:10.973Z,2.25
2017-12-27T14:40:39.258Z,1.92
2017-12-27T14:43:06.741Z,2.05
2017-12-27T14:45:35.125Z,3.15
2017-12-27T14:48:03.397Z,3.15
2017-12-27T14:50:31.115Z,3.83
2017-12-27T14:52:59.811Z,3.70
2017-12-27T14:55:27.309Z,3.40
2017-12-27T14:57:54.778Z,2.85
2017-12-27T15:00:23.539Z,3.92
2017-12-27T15:02:51.394Z,3.78
2017-12-27T15:05:19.041Z,4.10
2017-12-27T15:07:47.431Z,3.60
2017-12-27T15:10:14.926Z,4.57
2017-12-27T15:12:43.170Z,4.35
2017-12-27T15:15:12.650Z,3.40
2017-12-27T15:17:40.729Z,3.62
2017-12-27T15:20:10.242Z,3.80
2017-12-27T15:22:38.065Z,3.03
2017-12-27T15:25:07.084Z,3.08
2017-12-27T15:27:36.589Z,2.87
2017-12-27T15:30:04.062Z,2.83
2017-12-27T15:32:32.093Z,3.25
2017-12-27T15:35:00.335Z,2.80
2017-12-27T15:37:30.638Z,3.00
2017-12-27T15:39:58.141Z,2.80
2017-12-27T15:42:27.305Z,2.83
2017-12-27T15:44:54.781Z,2.00
2017-12-27T15:47:23.577Z,2.60
2017-12-27T15:49:51.293Z,3.03
2017-12-27T15:52:19.597Z,2.90
2017-12-27T15:54:48.018Z,3.12
2017-12-27T15:57:16.372Z,2.72
2017-12-27T15:59:44.860Z,2.55
2017-12-27T16:02:13.153Z,3.35
2017-12-27T16:04:41.894Z,3.45
2017-12-27T16:07:10.278Z,2.87
2017-12-27T16:09:41.355Z,3.00
2017-12-27T16:12:11.254Z,2.70
2017-12-27T16:14:39.098Z,3.10
2017-12-27T16:17:08.922Z,3.20
2017-12-27T16:19:36.953Z,3.53
2017-12-27T16:22:06.692Z,4.75
2017-12-27T16:24:35.709Z,3.83
2017-12-27T16:27:04.078Z,3.80
2017-12-27T16:29:32.355Z,4.53
2017-12-27T16:32:00.634Z,3.90
2017-12-27T16:34:29.169Z,3.95
2017-12-27T16:36:56.856Z,3.80
2017-12-27T16:39:26.274Z,3.87
2017-12-27T16:41:54.542Z,4.93
2017-12-27T16:44:23.433Z,4.50
2017-12-27T16:46:51.956Z,5.25
2017-12-27T16:49:20.349Z,4.40
2017-12-27T16:51:49.864Z,5.00
2017-12-27T16:54:17.622Z,4.15
2017-12-27T16:56:46.030Z,4.62
2017-12-27T16:59:13.724Z,4.80
2017-12-27T17:01:41.209Z,4.47
2017-12-27T17:04:09.462Z,4.05
2017-12-27T17:06:38.227Z,5.05
2017-12-27T17:09:05.725Z,6.15
2017-12-27T17:11:34.874Z,5.10
2017-12-27T17:14:03.293Z,6.55
2017-12-27T17:16:30.782Z,5.90
2017-12-27T17:18:58.294Z,5.80
2017-12-27T17:21:26.226Z,5.62
2017-12-27T17:23:54.054Z,7.35
2017-12-27T17:26:23.324Z,6.47
2017-12-27T17:28:51.774Z,6.30
2017-12-27T17:31:19.754Z,7.22
2017-12-27T17:33:47.509Z,6.07
2017-12-27T17:36:16.382Z,7.00
2017-12-27T17:38:46.174Z,6.70
2017-12-27T17:41:14.447Z,8.18
2017-12-27T17:43:42.713Z,8.23
2017-12-27T17:46:10.981Z,7.53
2017-12-27T17:48:39.762Z,7.50
2017-12-27T17:51:07.414Z,8.20
2017-12-27T17:53:34.894Z,8.77
2017-12-27T17:56:02.375Z,10.40
2017-12-27T17:58:31.281Z,9.18
2017-12-27T18:00:59.698Z,10.15
2017-12-27T18:03:27.178Z,11.10
2017-12-27T18:05:54.687Z,9.60
2017-12-27T18:08:26.898Z,8.80
2017-12-27T18:10:54.425Z,9.07
2017-12-27T18:13:21.955Z,9.40
2017-12-27T18:15:50.683Z,11.07
2017-12-27T18:18:19.742Z,9.50
2017-12-27T18:20:47.238Z,10.90
2017-12-27T18:23:14.720Z,10.60
2017-12-27T18:25:42.662Z,10.45
2017-12-27T18:28:10.474Z,11.18
2017-12-27T18:30:39.973Z,11.35
2017-12-27T18:33:07.501Z,11.60
2017-12-27T18:35:36.097Z,10.90
2017-12-27T18:38:04.366Z,11.25
2017-12-27T18:40:33.250Z,9.45
2017-12-27T18:43:02.427Z,9.70
2017-12-27T18:45:30.574Z,8.38
2017-12-27T18:47:58.101Z,4.95
2017-12-27T18:50:25.573Z,3.70
2017-12-27T18:52:53.045Z,2.05
2017-12-27T18:55:21.306Z,1.77
2017-12-27T18:57:48.773Z,1.50
2017-12-27T19:00:17.019Z,1.40
2017-12-27T19:02:44.522Z,1.50
2017-12-27T19:05:12.558Z,2.50
2017-12-27T19:07:40.117Z,1.60
2017-12-27T19:10:07.735Z,1.95
2017-12-27T19:12:35.217Z,1.50
2017-12-27T19:15:02.711Z,1.30
2017-12-27T19:17:30.191Z,1.62
2017-12-27T19:19:57.670Z,1.65
2017-12-27T19:22:25.170Z,2.30
2017-12-27T19:24:52.654Z,1.87
2017-12-27T19:27:20.894Z,1.33
2017-12-27T19:29:48.442Z,1.48
2017-12-27T19:32:15.918Z,1.50
2017-12-27T19:34:45.251Z,1.20
2017-12-27T19:37:13.528Z,2.15
2017-12-27T19:39:41.014Z,1.30
2017-12-27T19:42:08.497Z,1.30
2017-12-27T19:44:38.588Z,1.40
2017-12-27T19:47:07.458Z,1.55
2017-12-27T19:49:35.786Z,1.33
2017-12-27T19:52:03.302Z,1.33
2017-12-27T19:54:30.781Z,1.40
2017-12-27T19:56:58.308Z,1.30
2017-12-27T19:59:26.649Z,1.02
2017-12-27T20:01:54.130Z,1.00
2017-12-27T20:04:22.374Z,1.33
2017-12-27T20:06:49.874Z,1.20
2017-12-27T20:09:18.146Z,1.55
2017-12-27T20:11:45.617Z,1.30
2017-12-27T20:14:13.880Z,1.55
2017-12-27T20:16:43.958Z,1.50
2017-12-27T20:19:12.241Z,1.10
2017-12-27T20:21:40.474Z,1.60
2017-12-27T20:24:09.413Z,1.55
2017-12-27T20:26:38.094Z,1.48
2017-12-27T20:29:05.593Z,1.52
2017-12-27T20:31:34.658Z,2.05
2017-12-27T20:34:02.922Z,1.70
2017-12-27T20:36:30.434Z,1.90
2017-12-27T20:38:59.479Z,2.80
2017-12-27T20:41:27.057Z,1.95
2017-12-27T20:43:55.623Z,2.12
2017-12-27T20:46:23.097Z,3.05
2017-12-27T20:48:50.570Z,2.03
2017-12-27T20:51:19.770Z,2.03
2017-12-27T20:53:48.018Z,2.25
2017-12-27T20:56:16.318Z,2.12
2017-12-27T20:58:43.846Z,2.10
2017-12-27T21:01:12.138Z,3.25
2017-12-27T21:03:40.446Z,4.22
2017-12-27T21:06:08.726Z,2.42
2017-12-27T21:08:36.982Z,2.72
2017-12-27T21:11:04.673Z,2.40
2017-12-27T21:13:32.949Z,2.05
2017-12-27T21:16:00.427Z,2.35
2017-12-27T21:18:27.897Z,1.73
2017-12-27T21:20:56.389Z,1.70
2017-12-27T21:23:24.885Z,1.50
2017-12-27T21:25:52.626Z,1.75
2017-12-27T21:28:20.841Z,1.70
2017-12-27T21:30:49.094Z,1.62
2017-12-27T21:33:17.233Z,1.65
2017-12-27T21:35:44.770Z,1.90
2017-12-27T21:38:13.034Z,1.80
2017-12-27T21:40:40.508Z,1.60
2017-12-27T21:43:09.502Z,1.75
2017-12-27T21:45:36.982Z,1.92
2017-12-27T21:51:10.002Z,2.00
2017-12-27T21:53:37.506Z,1.90
2017-12-27T21:56:04.981Z,2.22
2017-12-27T21:58:39.018Z,2.30
2017-12-27T22:01:12.284Z,2.00
2017-12-27T22:03:40.464Z,2.17
2017-12-27T22:06:08.762Z,2.20
2017-12-27T22:08:36.254Z,2.08
2017-12-27T22:11:03.746Z,1.55
2017-12-27T22:13:31.982Z,3.00
2017-12-27T22:16:00.394Z,2.35
2017-12-27T22:18:27.885Z,2.03
2017-12-27T22:21:15.085Z,2.72
2017-12-27T22:23:43.346Z,2.30
2017-12-27T22:26:11.799Z,2.05
2017-12-27T22:28:39.285Z,3.08
2017-12-27T22:31:06.794Z,3.58
2017-12-27T22:33:34.555Z,4.30
2017-12-27T22:36:02.036Z,4.75
2017-12-27T22:38:29.741Z,4.03
2017-12-27T22:40:58.171Z,3.15
2017-12-27T22:43:26.331Z,2.40
2017-12-27T22:45:53.845Z,1.85
2017-12-27T22:51:15.102Z,1.90
2017-12-27T22:53:43.702Z,1.70
2017-12-27T22:56:11.831Z,1.70
2017-12-27T22:58:39.317Z,1.83
2017-12-27T23:04:14.386Z,1.62
2017-12-27T23:06:41.857Z,1.60
2017-12-27T23:09:09.329Z,1.70
2017-12-27T23:14:29.816Z,2.05
2017-12-27T23:16:57.306Z,2.58
2017-12-27T23:19:25.590Z,2.72
2017-12-27T23:21:53.914Z,3.78
2017-12-27T23:24:22.858Z,2.90
2017-12-27T23:26:51.038Z,3.28
2017-12-27T23:29:19.022Z,3.37
2017-12-27T23:31:46.497Z,3.60
2017-12-27T23:34:14.964Z,3.22
2017-12-27T23:36:42.538Z,5.22
2017-12-27T23:39:10.781Z,4.10
2017-12-27T23:41:39.174Z,4.65
2017-12-27T23:44:07.409Z,4.90
2017-12-27T23:46:34.922Z,3.60
2017-12-27T23:49:03.524Z,4.53
2017-12-27T23:51:31.053Z,3.62
2017-12-27T23:53:58.525Z,3.87
2017-12-27T23:56:26.773Z,4.28
2017-12-27T23:58:54.271Z,3.67
